Time;durP1;ratioP1;P1;durP2;ratioP2;P2;SDS_P1;SDS_P2;PMS_P1;PMS_P2;Temp;Humidity;BMP_temperature;BMP_pressure;BME280_temperature;BME280_humidity;BME280_pressure;Samples;Min_cycle;Max_cycle;Signal;HPM_P1;HPM_P2
2023/03/04 00:00:10;;;;;;;;;46.00;39.75;;;;;6.65;56.40;102044.78;2076577;28;46713;-68
2023/03/04 00:01:10;;;;;;;;;49.40;41.00;;;;;6.66;56.08;102051.84;2076485;28;47312;-68
2023/03/04 00:02:10;;;;;;;;;48.50;39.25;;;;;6.65;56.19;102048.31;2075157;28;46341;-68
2023/03/04 00:03:13;;;;;;;;;54.00;44.75;;;;;6.66;56.60;102052.72;2072200;28;46675;-68
2023/03/04 00:04:14;;;;;;;;;50.20;41.60;;;;;6.66;56.38;102054.47;2077170;28;45676;-67
2023/03/04 00:05:14;;;;;;;;;49.00;38.75;;;;;6.68;56.33;102052.75;2075937;28;46275;-68
2023/03/04 00:06:15;;;;;;;;;53.75;42.50;;;;;6.67;56.59;102054.50;2073898;28;45688;-68
2023/03/04 00:07:17;;;;;;;;;50.50;40.50;;;;;6.68;56.38;102058.91;2074649;28;45148;-67
2023/03/04 00:08:18;;;;;;;;;43.20;37.20;;;;;6.68;56.58;102048.38;2089415;28;46439;-68
2023/03/04 00:09:18;;;;;;;;;45.00;38.00;;;;;6.69;56.83;102055.41;2088803;28;46020;-70
2023/03/04 00:10:18;;;;;;;;;45.00;37.75;;;;;6.71;56.54;102052.78;2073131;28;46853;-67
2023/03/04 00:11:19;;;;;;;;;44.25;39.25;;;;;6.70;56.33;102051.03;2078929;28;46597;-68
2023/03/04 00:12:19;;;;;;;;;50.00;41.50;;;;;6.69;56.37;102049.25;2073238;28;46536;-68
2023/03/04 00:13:21;;;;;;;;;44.25;36.50;;;;;6.68;56.45;102044.84;2072845;28;45776;-68
2023/03/04 00:14:21;;;;;;;;;48.60;41.20;;;;;6.68;56.59;102047.47;2078258;28;46863;-68
2023/03/04 00:15:21;;;;;;;;;50.00;42.00;;;;;6.67;56.25;102046.59;2096565;28;45990;-69
2023/03/04 00:16:26;;;;;;;;;45.75;40.75;;;;;6.66;56.67;102051.84;2095548;28;46606;-67
2023/03/04 00:17:28;;;;;;;;;52.00;41.80;;;;;6.65;56.44;102048.31;2079348;28;45196;-69
2023/03/04 00:18:29;;;;;;;;;53.00;43.60;;;;;6.64;56.62;102048.31;2076986;28;46454;-68
2023/03/04 00:19:30;;;;;;;;;50.25;42.25;;;;;6.64;56.57;102057.09;2079264;28;46850;-68
2023/03/04 00:20:30;;;;;;;;;52.60;43.00;;;;;6.63;56.40;102050.06;2080504;28;45843;-67
2023/03/04 00:21:31;;;;;;;;;53.75;41.25;;;;;6.61;56.73;102051.78;2091337;28;46357;-68
2023/03/04 00:22:31;;;;;;;;;56.25;43.75;;;;;6.63;56.56;102057.09;2095571;28;46812;-68
2023/03/04 00:23:31;;;;;;;;;42.00;38.25;;;;;6.61;56.40;102056.19;2079083;28;45837;-69
2023/03/04 00:24:32;;;;;;;;;49.25;42.00;;;;;6.61;56.48;102053.53;2079191;28;46477;-69
2023/03/04 00:25:32;;;;;;;;;53.00;43.75;;;;;6.59;56.60;102056.13;2079458;28;46469;-68
2023/03/04 00:26:32;;;;;;;;;47.25;41.50;;;;;6.59;56.75;102063.16;2075289;28;46102;-68
2023/03/04 00:27:33;;;;;;;;;53.50;41.25;;;;;6.58;56.93;102058.75;2092198;28;46659;-70
2023/03/04 00:28:33;;;;;;;;;48.00;41.25;;;;;6.58;56.89;102061.38;2096229;28;46608;-68
2023/03/04 00:29:33;;;;;;;;;53.25;43.25;;;;;6.57;56.61;102062.25;2079613;28;46357;-69
2023/03/04 00:30:34;;;;;;;;;51.75;42.50;;;;;6.56;56.60;102069.25;2078377;28;46923;-70
2023/03/04 00:31:34;;;;;;;;;44.00;36.50;;;;;6.55;56.88;102056.94;2079869;28;45570;-69
2023/03/04 00:32:34;;;;;;;;;60.25;45.25;;;;;6.55;56.88;102064.84;2079502;28;46282;-70
2023/03/04 00:33:35;;;;;;;;;48.00;41.00;;;;;6.55;56.99;102058.69;2075759;28;46225;-70
2023/03/04 00:34:35;;;;;;;;;52.50;42.25;;;;;6.54;56.79;102059.56;2079571;28;46093;-69
2023/03/04 00:35:36;;;;;;;;;54.75;44.25;;;;;6.53;56.89;102063.06;2079650;28;46617;-68
2023/03/04 00:36:36;;;;;;;;;48.75;41.25;;;;;6.51;57.00;102060.41;2091553;28;46803;-68
2023/03/04 00:37:37;;;;;;;;;53.50;45.00;;;;;6.51;56.88;102063.03;2087456;28;46701;-68
2023/03/04 00:38:37;;;;;;;;;46.00;38.25;;;;;6.51;56.86;102063.03;2074388;28;46101;-69
2023/03/04 00:39:37;;;;;;;;;55.75;44.25;;;;;6.50;56.77;102063.91;2093833;28;46032;-69
2023/03/04 00:40:38;;;;;;;;;57.50;46.75;;;;;6.49;57.04;102060.38;2093281;28;46618;-69
2023/03/04 00:41:39;;;;;;;;;58.50;48.00;;;;;6.49;57.15;102063.03;2083456;28;45700;-69
2023/03/04 00:42:39;;;;;;;;;56.00;45.40;;;;;6.50;56.85;102069.19;2071854;28;47020;-69
2023/03/04 00:43:39;;;;;;;;;54.00;45.75;;;;;6.48;57.09;102063.88;2079771;28;46368;-69
2023/03/04 00:44:40;;;;;;;;;58.25;46.50;;;;;6.49;56.80;102070.03;2079375;28;46731;-68
2023/03/04 00:45:40;;;;;;;;;56.50;46.00;;;;;6.47;57.12;102062.09;2079571;28;46673;-67
2023/03/04 00:46:40;;;;;;;;;51.25;42.00;;;;;6.47;57.06;102067.34;2074828;28;46690;-68
2023/03/04 00:47:41;;;;;;;;;54.50;44.25;;;;;6.46;56.91;102067.34;2076544;28;45049;-69
2023/03/04 00:48:41;;;;;;;;;53.75;45.25;;;;;6.45;56.93;102066.44;2075223;28;44975;-68
2023/03/04 00:49:41;;;;;;;;;50.25;42.75;;;;;6.43;56.76;102070.81;2076390;28;45844;-68
2023/03/04 00:50:43;;;;;;;;;58.00;46.75;;;;;6.43;57.09;102072.56;2087707;28;46661;-67
2023/03/04 00:51:43;;;;;;;;;51.60;42.20;;;;;6.42;57.16;102073.44;2095066;28;46797;-68
2023/03/04 00:52:43;;;;;;;;;55.00;46.25;;;;;6.42;57.21;102068.16;2086528;28;45223;-68
2023/03/04 00:53:44;;;;;;;;;56.25;47.75;;;;;6.41;56.88;102071.66;2078433;28;46294;-68
2023/03/04 00:54:44;;;;;;;;;56.00;46.75;;;;;6.40;57.03;102075.16;2074316;28;46788;-68
2023/03/04 00:55:44;;;;;;;;;54.25;43.00;;;;;6.39;57.25;102082.19;2086405;28;46916;-69
2023/03/04 00:56:44;;;;;;;;;56.75;46.00;;;;;6.38;57.08;102077.78;2086572;28;45845;-67
2023/03/04 00:57:45;;;;;;;;;56.75;46.00;;;;;6.38;57.05;102074.25;2079564;28;45992;-69
2023/03/04 00:58:45;;;;;;;;;62.50;50.25;;;;;6.37;57.09;102073.38;2079708;28;45519;-68
2023/03/04 00:59:45;;;;;;;;;54.75;45.50;;;;;6.38;57.29;102074.25;2079190;28;46706;-67
2023/03/04 01:00:46;;;;;;;;;60.50;47.25;;;;;6.37;57.12;102075.13;2079304;28;46251;-68
2023/03/04 01:01:46;;;;;;;;;54.50;45.25;;;;;6.35;57.36;102077.72;2076842;28;46370;-68
2023/03/04 01:02:46;;;;;;;;;57.00;47.75;;;;;6.35;57.23;102068.91;2074865;28;46476;-67
2023/03/04 01:03:47;;;;;;;;;57.50;47.75;;;;;6.34;57.31;102068.00;2079369;28;46717;-67
2023/03/04 01:04:47;;;;;;;;;53.50;42.75;;;;;6.34;57.50;102073.28;2079394;28;45590;-68
2023/03/04 01:05:48;;;;;;;;;51.75;42.75;;;;;6.34;57.15;102077.66;2079161;28;45483;-68
2023/03/04 01:06:48;;;;;;;;;49.75;39.50;;;;;6.34;57.51;102075.03;2079468;28;46833;-69
2023/03/04 01:07:48;;;;;;;;;61.50;47.75;;;;;6.34;57.45;102077.66;2079705;28;46436;-69
2023/03/04 01:08:48;;;;;;;;;58.75;45.25;;;;;6.33;57.45;102070.63;2079455;28;45073;-68
2023/03/04 01:09:49;;;;;;;;;58.50;48.25;;;;;6.32;57.16;102080.28;2079518;28;46842;-68
2023/03/04 01:10:49;;;;;;;;;61.75;47.75;;;;;6.30;57.37;102073.22;2095637;28;46753;-68
2023/03/04 01:11:50;;;;;;;;;53.25;45.25;;;;;6.29;57.29;102074.06;2095840;28;46264;-69
2023/03/04 01:12:50;;;;;;;;;56.75;46.50;;;;;6.27;57.66;102073.16;2077187;28;46761;-69
2023/03/04 01:13:50;;;;;;;;;61.75;49.00;;;;;6.27;57.37;102078.44;2071096;28;46413;-68
2023/03/04 01:14:51;;;;;;;;;53.25;44.50;;;;;6.26;57.51;102074.91;2071108;28;46244;-69
2023/03/04 01:15:51;;;;;;;;;52.75;44.50;;;;;6.25;57.64;102070.50;2074553;28;46099;-68
2023/03/04 01:16:52;;;;;;;;;60.25;49.50;;;;;6.23;57.17;102068.72;2079127;28;46445;-68
2023/03/04 01:17:53;;;;;;;;;59.00;49.00;;;;;6.23;57.46;102071.34;2079145;28;46358;-67
2023/03/04 01:18:53;;;;;;;;;49.80;43.00;;;;;6.22;57.54;102067.78;2079387;28;46748;-70
2023/03/04 01:19:54;;;;;;;;;43.50;37.00;;;;;6.22;57.59;102064.28;2079354;28;45716;-67
2023/03/04 01:20:54;;;;;;;;;56.75;45.00;;;;;6.22;57.46;102069.53;2079238;28;46281;-70
2023/03/04 01:21:54;;;;;;;;;55.25;46.00;;;;;6.21;57.48;102068.66;2075207;28;46149;-68
2023/03/04 01:22:55;;;;;;;;;51.00;44.75;;;;;6.20;57.58;102067.78;2077629;28;46461;-69
2023/03/04 01:23:55;;;;;;;;;53.25;43.75;;;;;6.20;57.35;102065.13;2079444;28;46544;-68
2023/03/04 01:24:55;;;;;;;;;51.50;42.25;;;;;6.21;57.79;102068.66;2094420;28;45902;-67
2023/03/04 01:25:56;;;;;;;;;56.25;46.75;;;;;6.19;57.72;102068.63;2090075;28;46586;-69
2023/03/04 01:26:56;;;;;;;;;57.25;46.75;;;;;6.19;57.63;102070.38;2075218;28;45796;-68
2023/03/04 01:27:56;;;;;;;;;57.00;45.75;;;;;6.20;57.79;102069.53;2078585;28;46969;-68
2023/03/04 01:28:57;;;;;;;;;56.25;45.25;;;;;6.20;57.64;102064.25;2079212;28;46790;-69
2023/03/04 01:29:57;;;;;;;;;56.00;45.00;;;;;6.19;57.69;102067.75;2079493;28;45373;-69
2023/03/04 01:30:57;;;;;;;;;59.00;48.25;;;;;6.17;58.00;102064.19;2079427;28;46378;-69
2023/03/04 01:31:58;;;;;;;;;54.00;43.50;;;;;6.17;58.11;102066.84;2079295;28;46851;-67
2023/03/04 01:32:58;;;;;;;;;54.50;43.75;;;;;6.17;57.80;102062.44;2079292;28;46594;-67
2023/03/04 01:33:58;;;;;;;;;55.25;46.75;;;;;6.16;57.66;102065.94;2072154;28;45500;-67
2023/03/04 01:34:59;;;;;;;;;57.25;45.75;;;;;6.17;57.68;102061.56;2074084;28;46248;-69
2023/03/04 01:35:59;;;;;;;;;52.75;40.75;;;;;6.18;57.89;102068.63;2079399;28;46047;-68
2023/03/04 01:36:59;;;;;;;;;55.50;46.75;;;;;6.18;57.80;102068.63;2069683;28;47499;-68
2023/03/04 01:38:00;;;;;;;;;54.25;45.75;;;;;6.17;57.43;102070.38;2069522;28;46071;-69
2023/03/04 01:39:00;;;;;;;;;58.50;45.75;;;;;6.16;58.06;102060.69;2062013;28;46256;-69
2023/03/04 01:40:01;;;;;;;;;58.50;48.50;;;;;6.16;58.17;102058.03;2057393;28;46624;-68
2023/03/04 01:41:01;;;;;;;;;59.75;47.75;;;;;6.17;57.72;102062.44;2061754;28;46276;-69
2023/03/04 01:42:01;;;;;;;;;58.00;46.50;;;;;6.16;57.67;102055.41;2071132;28;46412;-69
2023/03/04 01:43:02;;;;;;;;;57.50;45.75;;;;;6.15;57.63;102058.91;2071294;28;46421;-67
2023/03/04 01:44:02;;;;;;;;;60.00;46.75;;;;;6.16;57.60;102062.44;2068016;28;45437;-68
2023/03/04 01:45:04;;;;;;;;;60.25;47.75;;;;;6.15;57.59;102060.66;2058577;28;46606;-68
2023/03/04 01:46:05;;;;;;;;;54.40;46.00;;;;;6.14;57.72;102058.88;2055034;28;47576;-68
2023/03/04 01:47:08;;;;;;;;;58.00;48.20;;;;;6.14;58.17;102054.50;2070315;28;46831;-69
2023/03/04 01:48:20;;;;;;;;;58.60;48.20;;;;;6.15;57.97;102058.03;2070907;28;46757;-68
2023/03/04 01:49:20;;;;;;;;;56.80;47.20;;;;;6.13;58.02;102050.09;2063261;28;46727;-69
2023/03/04 01:50:31;;;;;;;;;53.25;43.75;;;;;6.14;57.67;102057.13;2068800;28;46223;-68
2023/03/04 01:51:32;;;;;;;;;58.60;49.40;;;;;6.13;57.90;102052.72;2071835;28;46844;-68
2023/03/04 01:52:32;;;;;;;;;56.25;45.75;;;;;6.11;57.74;102046.53;2071538;28;46058;-68
2023/03/04 01:53:32;;;;;;;;;50.00;42.75;;;;;6.12;58.30;102044.78;2057185;28;45657;-68
2023/03/04 01:54:33;;;;;;;;;56.25;47.25;;;;;6.11;58.49;102043.03;2064585;28;45606;-69
2023/03/04 01:55:33;;;;;;;;;58.25;47.50;;;;;6.10;57.74;102039.50;2071826;28;46215;-69
2023/03/04 01:56:37;;;;;;;;;56.25;45.75;;;;;6.11;58.03;102046.53;2067547;28;46232;-68
2023/03/04 01:57:38;;;;;;;;;56.40;47.20;;;;;6.10;57.88;102044.78;2071071;28;46951;-68
2023/03/04 01:58:38;;;;;;;;;55.40;46.00;;;;;6.09;58.00;102042.97;2071415;28;46493;-68
2023/03/04 01:59:40;;;;;;;;;60.50;47.75;;;;;6.08;57.87;102045.59;2071646;28;46203;-67
2023/03/04 02:00:40;;;;;;;;;42.40;38.80;;;;;6.08;57.55;102040.31;2071136;28;46569;-69
2023/03/04 02:01:53;;;;;;;;;52.50;44.50;;;;;6.06;57.52;102039.41;2067634;28;46612;-68
2023/03/04 02:02:58;;;;;;;;;56.40;46.80;;;;;6.07;57.78;102036.78;2063389;28;45988;-68
2023/03/04 02:03:59;;;;;;;;;54.20;44.80;;;;;6.06;58.20;102042.03;2063905;28;46734;-67
2023/03/04 02:04:59;;;;;;;;;59.40;47.80;;;;;6.06;57.80;102037.66;2071262;28;46417;-67
2023/03/04 02:06:00;;;;;;;;;52.75;42.25;;;;;6.05;58.17;102035.00;2071358;28;46174;-68
2023/03/04 02:07:02;;;;;;;;;49.00;42.00;;;;;6.04;58.19;102036.75;2071331;28;46541;-66
2023/03/04 02:08:04;;;;;;;;;56.40;46.60;;;;;6.03;58.22;102039.34;2071772;28;46800;-69
2023/03/04 02:09:05;;;;;;;;;54.60;45.00;;;;;6.02;57.89;102035.84;2078983;28;46377;-68
2023/03/04 02:10:06;;;;;;;;;49.80;42.80;;;;;6.02;58.07;102033.19;2080492;28;46911;-68
2023/03/04 02:11:06;;;;;;;;;49.00;40.50;;;;;6.02;57.98;102024.41;2080552;28;46142;-68
2023/03/04 02:12:07;;;;;;;;;51.00;44.50;;;;;6.02;57.78;102032.31;2080508;28;46852;-67
2023/03/04 02:13:07;;;;;;;;;53.75;43.50;;;;;6.01;58.17;102031.44;2079985;28;46360;-67
2023/03/04 02:14:09;;;;;;;;;58.00;48.50;;;;;6.00;58.30;102034.91;2075609;28;46855;-67
2023/03/04 02:15:09;;;;;;;;;54.80;46.00;;;;;6.00;58.44;102039.31;2073511;28;46371;-67
2023/03/04 02:16:10;;;;;;;;;49.50;42.25;;;;;6.00;58.44;102039.31;2078476;28;46509;-68
2023/03/04 02:17:11;;;;;;;;;56.75;47.50;;;;;6.00;58.46;102042.81;2080196;28;45663;-70
2023/03/04 02:18:23;;;;;;;;;53.60;44.80;;;;;6.00;58.11;102039.31;2080642;28;46004;-69
2023/03/04 02:19:48;;;;;;;;;54.80;46.00;;;;;6.01;58.28;102038.44;2080089;28;46599;-68
2023/03/04 02:21:23;;;;;;;;;55.60;45.00;;;;;5.99;58.25;102038.41;2081558;28;46630;-67
2023/03/04 02:22:24;;;;;;;;;55.40;46.00;;;;;5.99;58.57;102048.06;2074470;28;46740;-68
2023/03/04 02:24:09;;;;;;;;;58.50;46.75;;;;;5.97;58.53;102048.03;2091963;28;46261;-65
2023/03/04 02:25:20;;;;;;;;;50.80;43.80;;;;;5.96;58.29;102045.34;2064985;28;46860;-66
2023/03/04 02:26:23;;;;;;;;;54.40;44.60;;;;;5.95;57.98;102043.59;2063135;28;46780;-68
2023/03/04 02:27:24;;;;;;;;;57.20;46.80;;;;;5.95;58.16;102040.94;2062537;28;46745;-68
2023/03/04 02:28:24;;;;;;;;;58.25;46.25;;;;;5.94;58.63;102036.53;2063090;28;45084;-69
2023/03/04 02:29:24;;;;;;;;;51.75;42.50;;;;;5.94;58.05;102040.06;2063099;28;46486;-68
2023/03/04 02:30:25;;;;;;;;;57.00;46.75;;;;;5.93;58.24;102038.28;2062784;28;46628;-65
2023/03/04 02:31:37;;;;;;;;;52.50;43.75;;;;;5.93;58.29;102034.78;2070923;28;46619;-68
2023/03/04 02:32:38;;;;;;;;;55.40;44.80;;;;;5.93;58.60;102042.69;2067196;28;46572;-68
2023/03/04 02:33:38;;;;;;;;;56.50;45.75;;;;;5.93;58.39;102038.28;2062581;28;46628;-70
2023/03/04 02:34:47;;;;;;;;;58.00;46.75;;;;;5.94;57.93;102039.19;2063451;28;46578;-68
2023/03/04 02:35:48;;;;;;;;;53.00;44.20;;;;;5.94;58.40;102034.78;2062802;28;46462;-68
2023/03/04 02:36:51;;;;;;;;;56.50;47.00;;;;;5.93;58.15;102035.66;2062821;28;45658;-68
2023/03/04 02:37:52;;;;;;;;;56.80;44.60;;;;;5.93;58.20;102032.13;2063022;28;46593;-67
2023/03/04 02:38:53;;;;;;;;;42.25;37.25;;;;;5.92;58.45;102031.25;2071794;28;45685;-68
2023/03/04 02:39:54;;;;;;;;;59.40;48.40;;;;;5.92;58.12;102030.38;2070473;28;46443;-68
2023/03/04 02:40:56;;;;;;;;;52.50;44.50;;;;;5.93;58.33;102037.41;2061113;28;46193;-67
2023/03/04 02:41:57;;;;;;;;;51.60;41.40;;;;;5.93;58.18;102035.66;2062553;28;45906;-68
2023/03/04 02:42:59;;;;;;;;;53.25;45.75;;;;;5.93;58.57;102027.75;2062956;28;46669;-67
2023/03/04 02:43:59;;;;;;;;;56.40;46.00;;;;;5.95;58.10;102038.31;2062705;28;46967;-68
2023/03/04 02:45:00;;;;;;;;;57.00;45.25;;;;;5.94;58.13;102037.44;2071106;28;46813;-69
2023/03/04 02:46:01;;;;;;;;;55.00;47.50;;;;;5.95;58.59;102035.69;2071557;28;45803;-69
2023/03/04 02:47:02;;;;;;;;;59.75;48.00;;;;;5.95;58.22;102035.69;2063285;28;46332;-68
2023/03/04 02:48:03;;;;;;;;;58.00;46.20;;;;;5.94;58.53;102032.16;2062669;28;46988;-67
2023/03/04 02:49:04;;;;;;;;;55.25;46.00;;;;;5.94;58.42;102032.16;2062683;28;46847;-67
2023/03/04 02:50:04;;;;;;;;;54.25;45.00;;;;;5.94;58.26;102029.53;2059438;28;46211;-68
2023/03/04 02:51:05;;;;;;;;;49.20;41.20;;;;;5.94;58.12;102026.00;2058775;28;46304;-69
2023/03/04 02:52:09;;;;;;;;;54.25;45.75;;;;;5.95;58.19;102031.28;2063022;28;46124;-68
2023/03/04 02:53:09;;;;;;;;;56.80;47.60;;;;;5.95;58.25;102031.28;2062907;28;46522;-67
2023/03/04 02:54:19;;;;;;;;;44.50;37.25;;;;;5.94;58.28;102026.88;2062989;28;46977;-69
2023/03/04 02:55:20;;;;;;;;;54.80;45.80;;;;;5.94;58.67;102018.97;2063249;28;46909;-67
2023/03/04 02:56:20;;;;;;;;;47.00;39.25;;;;;5.93;58.67;102027.75;2062388;28;46782;-67
2023/03/04 02:57:20;;;;;;;;;51.00;41.25;;;;;5.94;58.68;102020.72;2063280;28;46337;-68
2023/03/04 02:58:21;;;;;;;;;55.00;45.00;;;;;5.93;58.52;102021.59;2071161;28;45536;-68
2023/03/04 02:59:22;;;;;;;;;57.75;47.75;;;;;5.94;58.80;102023.38;2071443;28;45835;-68
2023/03/04 03:00:22;;;;;;;;;56.00;47.60;;;;;5.94;58.63;102026.00;2063024;28;46752;-68
2023/03/04 03:01:27;;;;;;;;;53.25;44.75;;;;;5.94;58.64;102023.38;2062629;28;46615;-67
2023/03/04 03:02:27;;;;;;;;;56.00;46.60;;;;;5.93;58.48;102019.84;2061259;28;46132;-67
2023/03/04 03:03:28;;;;;;;;;57.25;48.00;;;;;5.94;58.55;102023.38;2080808;28;45988;-68
2023/03/04 03:04:28;;;;;;;;;52.25;42.25;;;;;5.92;58.51;102020.72;2079965;28;46826;-69
2023/03/04 03:05:32;;;;;;;;;55.75;45.00;;;;;5.91;58.76;102016.31;2080023;28;46521;-68
2023/03/04 03:06:33;;;;;;;;;55.80;46.00;;;;;5.89;58.79;102018.88;2087886;28;46602;-67
2023/03/04 03:07:37;;;;;;;;;52.00;44.00;;;;;5.88;58.81;102022.38;2087751;28;46286;-68
2023/03/04 03:08:37;;;;;;;;;58.20;47.60;;;;;5.89;58.78;102020.63;2088236;28;45818;-68
2023/03/04 03:09:37;;;;;;;;;41.25;38.50;;;;;5.88;58.95;102024.13;2086852;28;46145;-69
2023/03/04 03:10:38;;;;;;;;;57.75;47.00;;;;;5.88;58.61;102016.22;2080051;28;46955;-67
2023/03/04 03:11:38;;;;;;;;;52.25;42.50;;;;;5.87;58.67;102017.09;2080210;28;46466;-68
2023/03/04 03:12:38;;;;;;;;;52.00;43.25;;;;;5.85;58.51;102019.69;2080009;28;46320;-67
2023/03/04 03:13:39;;;;;;;;;54.00;42.75;;;;;5.86;58.73;102020.59;2080488;28;46667;-69
2023/03/04 03:14:39;;;;;;;;;58.25;48.75;;;;;5.85;58.58;102017.06;2080531;28;46410;-68
2023/03/04 03:15:41;;;;;;;;;55.75;46.25;;;;;5.85;58.74;102014.44;2080252;28;45563;-68
2023/03/04 03:16:42;;;;;;;;;54.60;46.00;;;;;5.85;58.49;102014.44;2080210;28;46445;-69
2023/03/04 03:17:43;;;;;;;;;55.20;45.40;;;;;5.85;58.57;102018.81;2074346;28;46495;-68
2023/03/04 03:18:43;;;;;;;;;58.00;47.75;;;;;5.84;58.49;102006.47;2074815;28;46311;-67
2023/03/04 03:19:43;;;;;;;;;53.25;44.00;;;;;5.84;58.54;102012.66;2080576;28;45058;-67
2023/03/04 03:20:44;;;;;;;;;57.75;49.00;;;;;5.84;58.74;102014.38;2080077;28;46395;-67
2023/03/04 03:21:44;;;;;;;;;61.00;46.00;;;;;5.82;58.65;102016.09;2079569;28;47114;-68
2023/03/04 03:22:45;;;;;;;;;54.25;44.75;;;;;5.81;58.63;102009.94;2079028;28;46293;-69
2023/03/04 03:23:46;;;;;;;;;57.80;46.40;;;;;5.81;58.71;102012.56;2077005;28;46627;-68
2023/03/04 03:24:46;;;;;;;;;53.75;45.25;;;;;5.81;58.73;102002.03;2072270;28;46725;-68
2023/03/04 03:25:46;;;;;;;;;57.50;45.75;;;;;5.81;58.67;102012.56;2074113;28;46841;-68
2023/03/04 03:26:47;;;;;;;;;58.00;48.75;;;;;5.81;58.74;102011.69;2080385;28;45703;-67
2023/03/04 03:27:47;;;;;;;;;55.75;45.75;;;;;5.80;58.87;102015.19;2079561;28;45115;-68
2023/03/04 03:28:47;;;;;;;;;51.25;43.25;;;;;5.79;58.56;102013.41;2081027;28;44966;-68
2023/03/04 03:29:47;;;;;;;;;55.75;45.75;;;;;5.78;58.95;102012.53;2079692;28;46492;-67
2023/03/04 03:30:48;;;;;;;;;59.25;47.25;;;;;5.78;58.59;102009.88;2080028;28;46770;-68
2023/03/04 03:31:48;;;;;;;;;61.25;48.00;;;;;5.79;58.68;102010.78;2084173;28;46294;-67
2023/03/04 03:32:49;;;;;;;;;62.25;48.25;;;;;5.78;58.71;102017.78;2079296;28;46304;-67
2023/03/04 03:33:49;;;;;;;;;59.00;45.75;;;;;5.78;58.63;102014.28;2077524;28;46575;-69
2023/03/04 03:34:49;;;;;;;;;58.25;46.75;;;;;5.77;58.80;102008.13;2079856;28;46183;-68
2023/03/04 03:35:50;;;;;;;;;56.00;45.50;;;;;5.76;58.93;102008.97;2079816;28;46328;-68
2023/03/04 03:36:50;;;;;;;;;57.25;44.25;;;;;5.77;58.78;102004.59;2076134;28;46488;-67
2023/03/04 03:37:50;;;;;;;;;58.00;47.50;;;;;5.77;58.91;102008.13;2076415;28;46465;-68
2023/03/04 03:38:51;;;;;;;;;52.75;44.50;;;;;5.75;58.45;102011.59;2079639;28;46276;-68
2023/03/04 03:39:51;;;;;;;;;62.50;51.00;;;;;5.74;58.92;102005.44;2079946;28;45584;-67
2023/03/04 03:40:52;;;;;;;;;55.00;44.25;;;;;5.74;58.97;102009.81;2080071;28;46610;-69
2023/03/04 03:41:52;;;;;;;;;54.75;46.25;;;;;5.73;59.09;102008.03;2079924;28;46865;-68
2023/03/04 03:42:53;;;;;;;;;57.75;48.50;;;;;5.73;59.18;102008.94;2079615;28;46669;-69
2023/03/04 03:43:53;;;;;;;;;54.75;46.00;;;;;5.75;59.21;102008.94;2079793;28;46423;-69
2023/03/04 03:44:54;;;;;;;;;57.25;46.75;;;;;5.74;58.90;102012.44;2080213;28;46482;-68
2023/03/04 03:45:55;;;;;;;;;56.60;46.80;;;;;5.74;58.94;102005.44;2079620;28;46513;-67
2023/03/04 03:46:55;;;;;;;;;59.50;48.00;;;;;5.75;58.73;102006.31;2096013;28;46398;-70
2023/03/04 03:47:55;;;;;;;;;53.25;44.50;;;;;5.75;58.93;102011.59;2096271;28;45569;-67
2023/03/04 03:48:56;;;;;;;;;52.00;43.25;;;;;5.75;58.86;102008.94;2076024;28;46606;-67
2023/03/04 03:49:56;;;;;;;;;58.25;46.00;;;;;5.75;59.30;102017.75;2077011;28;46258;-69
2023/03/04 03:50:56;;;;;;;;;58.00;47.75;;;;;5.74;58.65;102018.59;2076871;28;46265;-68
2023/03/04 03:51:57;;;;;;;;;59.25;48.00;;;;;5.73;58.62;102015.94;2080447;28;45955;-68
2023/03/04 03:52:57;;;;;;;;;46.50;41.00;;;;;5.72;58.66;102022.06;2079801;28;46077;-68
2023/03/04 03:53:57;;;;;;;;;58.25;47.50;;;;;5.72;58.52;102017.69;2079970;28;46911;-69
2023/03/04 03:55:00;;;;;;;;;59.25;47.50;;;;;5.71;58.84;102026.41;2079489;28;46618;-68
2023/03/04 03:56:01;;;;;;;;;58.00;47.80;;;;;5.71;58.96;102023.78;2080041;28;46786;-70
2023/03/04 03:57:01;;;;;;;;;57.75;48.00;;;;;5.70;58.80;102021.13;2079819;28;46801;-67
2023/03/04 03:58:01;;;;;;;;;59.75;49.25;;;;;5.68;58.84;102022.84;2079756;28;46500;-68
2023/03/04 03:59:02;;;;;;;;;52.00;44.75;;;;;5.67;59.09;102021.06;2079901;28;46232;-68
2023/03/04 04:00:04;;;;;;;;;54.25;45.25;;;;;5.67;59.19;102019.31;2080086;28;46394;-68
2023/03/04 04:01:04;;;;;;;;;56.00;44.20;;;;;5.67;58.72;102023.72;2075842;28;46684;-68
2023/03/04 04:02:04;;;;;;;;;59.50;48.75;;;;;5.68;58.54;102020.22;2073507;28;46461;-68
2023/03/04 04:03:05;;;;;;;;;58.75;47.00;;;;;5.68;58.72;102021.09;2077606;28;46813;-68
2023/03/04 04:04:06;;;;;;;;;57.75;46.50;;;;;5.67;59.17;102023.72;2086172;28;46565;-67
2023/03/04 04:05:07;;;;;;;;;64.50;50.75;;;;;5.67;58.97;102026.34;2086166;28;46827;-68
2023/03/04 04:06:08;;;;;;;;;58.40;47.00;;;;;5.64;58.73;102027.19;2085547;28;46494;-67
2023/03/04 04:07:08;;;;;;;;;61.25;48.75;;;;;5.64;59.04;102023.66;2079255;28;45238;-69
2023/03/04 04:08:18;;;;;;;;;55.50;45.75;;;;;5.62;59.16;102018.38;2086597;28;46178;-67
2023/03/04 04:09:18;;;;;;;;;51.80;43.00;;;;;5.62;59.04;102021.00;2080826;28;46865;-70
2023/03/04 04:10:19;;;;;;;;;54.75;46.50;;;;;5.63;58.63;102029.78;2078727;28;46206;-69
2023/03/04 04:11:19;;;;;;;;;59.50;49.75;;;;;5.61;59.04;102024.50;2079981;28;46458;-67
2023/03/04 04:12:20;;;;;;;;;59.25;45.50;;;;;5.61;58.91;102024.50;2081310;28;46828;-68
2023/03/04 04:13:20;;;;;;;;;50.50;43.50;;;;;5.60;58.63;102022.72;2078886;28;46357;-66
2023/03/04 04:14:20;;;;;;;;;56.75;45.50;;;;;5.59;58.99;102027.09;2082927;28;45545;-69
2023/03/04 04:15:21;;;;;;;;;61.50;48.25;;;;;5.59;58.72;102023.59;2076982;28;46118;-69
2023/03/04 04:16:21;;;;;;;;;54.25;44.75;;;;;5.59;59.18;102028.84;2079007;28;46248;-68
2023/03/04 04:17:22;;;;;;;;;58.75;46.25;;;;;5.58;59.11;102029.69;2086820;28;46787;-67
2023/03/04 04:18:24;;;;;;;;;46.50;38.00;;;;;5.58;58.57;102029.69;2082805;28;46189;-68
2023/03/04 04:19:25;;;;;;;;;55.80;45.20;;;;;5.58;58.84;102029.69;2068850;28;46548;-67
2023/03/04 04:20:25;;;;;;;;;52.25;43.75;;;;;5.57;58.94;102036.69;2065672;28;45514;-67
2023/03/04 04:21:26;;;;;;;;;56.00;44.50;;;;;5.56;58.93;102037.56;2078573;28;45444;-68
2023/03/04 04:22:26;;;;;;;;;56.50;47.25;;;;;5.54;58.98;102031.38;2078503;28;46380;-69
2023/03/04 04:23:26;;;;;;;;;49.25;43.00;;;;;5.55;58.71;102032.25;2086639;28;46612;-68
2023/03/04 04:24:27;;;;;;;;;54.75;44.00;;;;;5.53;59.08;102032.22;2085890;28;45823;-68
2023/03/04 04:25:27;;;;;;;;;56.25;45.75;;;;;5.53;58.80;102034.84;2082720;28;45876;-69
2023/03/04 04:26:28;;;;;;;;;54.50;46.00;;;;;5.54;59.20;102035.75;2082107;28;46411;-69
2023/03/04 04:27:28;;;;;;;;;55.25;43.25;;;;;5.53;59.07;102031.34;2086860;28;46014;-69
2023/03/04 04:28:28;;;;;;;;;59.25;46.50;;;;;5.51;59.05;102027.78;2081565;28;45885;-69
2023/03/04 04:29:29;;;;;;;;;61.50;49.25;;;;;5.51;58.79;102033.94;2087026;28;46618;-68
2023/03/04 04:30:30;;;;;;;;;57.60;46.80;;;;;5.49;59.24;102027.78;2087317;28;45715;-69
2023/03/04 04:31:30;;;;;;;;;46.25;39.50;;;;;5.50;58.85;102026.03;2080829;28;46238;-68
2023/03/04 04:32:30;;;;;;;;;56.50;44.50;;;;;5.50;59.10;102031.28;2085809;28;44952;-69
2023/03/04 04:33:31;;;;;;;;;55.75;46.00;;;;;5.49;58.91;102035.66;2078773;28;45729;-70
2023/03/04 04:34:31;;;;;;;;;55.25;45.75;;;;;5.48;58.96;102028.63;2078548;28;46252;-68
2023/03/04 04:35:34;;;;;;;;;57.25;48.25;;;;;5.48;59.14;102031.25;2086740;28;46190;-69
2023/03/04 04:36:34;;;;;;;;;50.40;42.00;;;;;5.47;58.98;102028.59;2080749;28;47009;-70
2023/03/04 04:37:35;;;;;;;;;52.75;44.50;;;;;5.48;58.68;102035.66;2083697;28;46262;-68
2023/03/04 04:38:36;;;;;;;;;58.25;44.25;;;;;5.46;59.01;102022.44;2083112;28;45765;-68
2023/03/04 04:39:36;;;;;;;;;50.20;41.40;;;;;5.48;58.82;102030.38;2087295;28;46256;-67
2023/03/04 04:40:37;;;;;;;;;55.00;45.50;;;;;5.46;58.78;102029.44;2087100;28;45874;-69
2023/03/04 04:41:42;;;;;;;;;55.25;46.75;;;;;5.45;59.04;102020.66;2094776;28;46536;-68